sensor_id;sensor_type;location;lat;lon;timestamp;pressure;altitude;pressure_sealevel;temperature;humidity
76074;BME280;64776;42.636;24.358;2023-05-10T00:00:10;90424.59;;;5.82;90.98
76074;BME280;64776;42.636;24.358;2023-05-10T00:03:11;90421.94;;;5.82;91.69
76074;BME280;64776;42.636;24.358;2023-05-10T00:06:12;90417.19;;;5.77;91.51
76074;BME280;64776;42.636;24.358;2023-05-10T00:09:13;90421.78;;;5.76;91.22
76074;BME280;64776;42.636;24.358;2023-05-10T00:12:15;90417.47;;;5.70;91.68
76074;BME280;64776;42.636;24.358;2023-05-10T00:15:16;90418.09;;;5.74;91.29
76074;BME280;64776;42.636;24.358;2023-05-10T00:18:17;90410.44;;;5.76;90.57
76074;BME280;64776;42.636;24.358;2023-05-10T00:21:18;90413.22;;;5.72;91.50
76074;BME280;64776;42.636;24.358;2023-05-10T00:24:18;90407.75;;;5.67;91.44
76074;BME280;64776;42.636;24.358;2023-05-10T00:27:21;90407.75;;;5.67;91.85
76074;BME280;64776;42.636;24.358;2023-05-10T00:30:21;90401.19;;;5.81;91.42
76074;BME280;64776;42.636;24.358;2023-05-10T00:33:22;90406.00;;;5.73;91.41
76074;BME280;64776;42.636;24.358;2023-05-10T00:36:23;90415.38;;;5.65;91.44
76074;BME280;64776;42.636;24.358;2023-05-10T00:39:24;90415.03;;;5.54;91.07
76074;BME280;64776;42.636;24.358;2023-05-10T00:42:26;90408.31;;;5.31;91.26
76074;BME280;64776;42.636;24.358;2023-05-10T00:45:27;90412.16;;;5.18;91.06
76074;BME280;64776;42.636;24.358;2023-05-10T00:48:29;90404.19;;;5.09;90.51
76074;BME280;64776;42.636;24.358;2023-05-10T00:51:30;90415.56;;;4.97;90.95
76074;BME280;64776;42.636;24.358;2023-05-10T00:54:31;90414.44;;;4.85;89.65
76074;BME280;64776;42.636;24.358;2023-05-10T00:57:33;90414.25;;;4.79;89.36
76074;BME280;64776;42.636;24.358;2023-05-10T01:00:35;90410.09;;;4.78;88.17
76074;BME280;64776;42.636;24.358;2023-05-10T01:03:37;90410.47;;;4.68;88.84
76074;BME280;64776;42.636;24.358;2023-05-10T01:06:39;90410.28;;;4.62;88.78
76074;BME280;64776;42.636;24.358;2023-05-10T01:09:40;90411.88;;;4.47;88.73
76074;BME280;64776;42.636;24.358;2023-05-10T01:12:43;90417.94;;;4.35;87.89
76074;BME280;64776;42.636;24.358;2023-05-10T01:15:46;90418.19;;;4.28;89.78
76074;BME280;64776;42.636;24.358;2023-05-10T01:18:47;90411.63;;;4.33;88.62
76074;BME280;64776;42.636;24.358;2023-05-10T01:21:56;90415.09;;;4.30;89.50
76074;BME280;64776;42.636;24.358;2023-05-10T01:25:25;90417.00;;;4.29;89.92
76074;BME280;64776;42.636;24.358;2023-05-10T01:28:42;90416.25;;;4.29;89.45
76074;BME280;64776;42.636;24.358;2023-05-10T01:32:08;90411.66;;;4.20;88.44
76074;BME280;64776;42.636;24.358;2023-05-10T01:35:17;90416.19;;;4.07;89.38
76074;BME280;64776;42.636;24.358;2023-05-10T01:38:26;90411.22;;;4.09;89.59
76074;BME280;64776;42.636;24.358;2023-05-10T01:41:37;90406.38;;;4.07;90.06
76074;BME280;64776;42.636;24.358;2023-05-10T01:44:44;90408.69;;;4.05;88.79
76074;BME280;64776;42.636;24.358;2023-05-10T01:47:54;90414.50;;;4.13;89.01
76074;BME280;64776;42.636;24.358;2023-05-10T01:50:56;90413.13;;;4.08;88.81
76074;BME280;64776;42.636;24.358;2023-05-10T01:54:01;90407.75;;;4.12;89.82
76074;BME280;64776;42.636;24.358;2023-05-10T01:57:05;90415.75;;;4.21;88.86
76074;BME280;64776;42.636;24.358;2023-05-10T02:00:09;90420.72;;;4.19;89.38
76074;BME280;64776;42.636;24.358;2023-05-10T02:03:12;90418.19;;;4.16;89.14
76074;BME280;64776;42.636;24.358;2023-05-10T02:06:14;90411.34;;;4.18;89.17
76074;BME280;64776;42.636;24.358;2023-05-10T02:09:17;90417.22;;;4.35;89.43
76074;BME280;64776;42.636;24.358;2023-05-10T02:12:19;90415.22;;;4.39;89.31
76074;BME280;64776;42.636;24.358;2023-05-10T02:15:23;90409.69;;;4.46;88.73
76074;BME280;64776;42.636;24.358;2023-05-10T02:18:27;90406.16;;;4.61;88.62
76074;BME280;64776;42.636;24.358;2023-05-10T02:21:29;90407.81;;;4.68;88.41
76074;BME280;64776;42.636;24.358;2023-05-10T02:24:32;90414.78;;;4.74;88.34
76074;BME280;64776;42.636;24.358;2023-05-10T02:27:34;90414.06;;;4.74;86.36
76074;BME280;64776;42.636;24.358;2023-05-10T02:30:37;90422.84;;;4.58;86.34
76074;BME280;64776;42.636;24.358;2023-05-10T02:33:40;90420.13;;;4.49;83.11
76074;BME280;64776;42.636;24.358;2023-05-10T02:36:41;90425.41;;;4.49;83.98
76074;BME280;64776;42.636;24.358;2023-05-10T02:39:44;90421.22;;;4.39;84.85
76074;BME280;64776;42.636;24.358;2023-05-10T02:42:47;90420.28;;;4.21;84.53
76074;BME280;64776;42.636;24.358;2023-05-10T02:45:48;90422.53;;;4.22;85.89
76074;BME280;64776;42.636;24.358;2023-05-10T02:48:50;90421.13;;;4.30;85.42
76074;BME280;64776;42.636;24.358;2023-05-10T02:51:56;90419.44;;;4.36;84.32
76074;BME280;64776;42.636;24.358;2023-05-10T02:55:01;90412.88;;;4.41;84.82
76074;BME280;64776;42.636;24.358;2023-05-10T02:58:04;90416.66;;;4.40;84.66
76074;BME280;64776;42.636;24.358;2023-05-10T03:01:04;90419.13;;;4.34;85.12
76074;BME280;64776;42.636;24.358;2023-05-10T03:04:07;90418.25;;;4.37;85.38
76074;BME280;64776;42.636;24.358;2023-05-10T03:07:08;90422.13;;;4.45;85.93
76074;BME280;64776;42.636;24.358;2023-05-10T03:10:09;90418.22;;;4.50;85.97
76074;BME280;64776;42.636;24.358;2023-05-10T03:13:20;90420.34;;;4.55;84.31
76074;BME280;64776;42.636;24.358;2023-05-10T03:16:29;90413.47;;;4.57;83.65
76074;BME280;64776;42.636;24.358;2023-05-10T03:19:40;90417.41;;;4.40;84.55
76074;BME280;64776;42.636;24.358;2023-05-10T03:22:46;90413.38;;;4.48;84.90
76074;BME280;64776;42.636;24.358;2023-05-10T03:25:48;90410.63;;;4.52;84.17
76074;BME280;64776;42.636;24.358;2023-05-10T03:28:50;90413.78;;;4.59;84.33
76074;BME280;64776;42.636;24.358;2023-05-10T03:31:51;90423.47;;;4.62;84.56
76074;BME280;64776;42.636;24.358;2023-05-10T03:34:53;90422.75;;;4.62;84.75
76074;BME280;64776;42.636;24.358;2023-05-10T03:37:54;90423.72;;;4.55;84.91
76074;BME280;64776;42.636;24.358;2023-05-10T03:40:55;90421.41;;;4.57;84.19
76074;BME280;64776;42.636;24.358;2023-05-10T03:43:55;90410.81;;;4.57;83.83
76074;BME280;64776;42.636;24.358;2023-05-10T03:46:56;90425.59;;;4.67;84.47
76074;BME280;64776;42.636;24.358;2023-05-10T03:49:58;90423.13;;;4.73;84.36
76074;BME280;64776;42.636;24.358;2023-05-10T03:52:59;90422.28;;;4.76;83.98
76074;BME280;64776;42.636;24.358;2023-05-10T03:56:00;90421.25;;;4.73;84.22
76074;BME280;64776;42.636;24.358;2023-05-10T03:59:01;90417.53;;;4.71;83.70
76074;BME280;64776;42.636;24.358;2023-05-10T04:02:02;90415.03;;;4.67;84.65
76074;BME280;64776;42.636;24.358;2023-05-10T04:05:05;90416.25;;;4.75;85.66
76074;BME280;64776;42.636;24.358;2023-05-10T04:08:06;90423.09;;;4.85;84.47
76074;BME280;64776;42.636;24.358;2023-05-10T04:11:07;90419.88;;;4.90;83.61
76074;BME280;64776;42.636;24.358;2023-05-10T04:14:08;90423.28;;;4.91;83.64
76074;BME280;64776;42.636;24.358;2023-05-10T04:17:08;90426.44;;;4.99;82.01
76074;BME280;64776;42.636;24.358;2023-05-10T04:20:11;90424.81;;;5.01;82.92
76074;BME280;64776;42.636;24.358;2023-05-10T04:23:13;90424.28;;;5.06;82.86
76074;BME280;64776;42.636;24.358;2023-05-10T04:26:13;90421.34;;;5.04;83.79
76074;BME280;64776;42.636;24.358;2023-05-10T04:29:14;90427.97;;;5.09;83.93
76074;BME280;64776;42.636;24.358;2023-05-10T04:32:15;90425.06;;;5.16;84.38
76074;BME280;64776;42.636;24.358;2023-05-10T04:35:17;90422.75;;;5.18;83.39
76074;BME280;64776;42.636;24.358;2023-05-10T04:38:18;90419.69;;;5.19;83.49
76074;BME280;64776;42.636;24.358;2023-05-10T04:41:19;90423.31;;;5.13;82.70
76074;BME280;64776;42.636;24.358;2023-05-10T04:44:20;90420.09;;;5.18;82.35
76074;BME280;64776;42.636;24.358;2023-05-10T04:47:20;90412.22;;;5.27;81.68
76074;BME280;64776;42.636;24.358;2023-05-10T04:50:22;90415.50;;;5.31;82.73
76074;BME280;64776;42.636;24.358;2023-05-10T04:53:23;90418.75;;;5.35;82.15
76074;BME280;64776;42.636;24.358;2023-05-10T04:56:24;90416.41;;;5.37;82.50
76074;BME280;64776;42.636;24.358;2023-05-10T04:59:25;90415.28;;;5.47;82.57
76074;BME280;64776;42.636;24.358;2023-05-10T05:02:26;90414.91;;;5.57;78.83
76074;BME280;64776;42.636;24.358;2023-05-10T05:05:28;90417.84;;;5.59;76.37
76074;BME280;64776;42.636;24.358;2023-05-10T05:08:29;90421.56;;;5.62;76.59
76074;BME280;64776;42.636;24.358;2023-05-10T05:11:29;90424.44;;;5.55;75.85
76074;BME280;64776;42.636;24.358;2023-05-10T05:14:30;90426.63;;;5.47;75.58
76074;BME280;64776;42.636;24.358;2023-05-10T05:17:32;90426.38;;;5.33;75.04
76074;BME280;64776;42.636;24.358;2023-05-10T05:20:34;90423.97;;;5.26;74.62
76074;BME280;64776;42.636;24.358;2023-05-10T05:23:35;90424.78;;;5.14;75.64
76074;BME280;64776;42.636;24.358;2023-05-10T05:26:35;90423.31;;;5.13;74.39
76074;BME280;64776;42.636;24.358;2023-05-10T05:29:36;90427.53;;;5.10;76.38
76074;BME280;64776;42.636;24.358;2023-05-10T05:32:38;90421.31;;;5.26;75.50
76074;BME280;64776;42.636;24.358;2023-05-10T05:35:40;90432.53;;;5.30;75.54
76074;BME280;64776;42.636;24.358;2023-05-10T05:38:41;90438.78;;;5.45;76.88
76074;BME280;64776;42.636;24.358;2023-05-10T05:41:41;90436.09;;;5.57;74.60
76074;BME280;64776;42.636;24.358;2023-05-10T05:44:42;90434.13;;;5.49;74.20
76074;BME280;64776;42.636;24.358;2023-05-10T05:47:43;90434.28;;;5.54;75.19
76074;BME280;64776;42.636;24.358;2023-05-10T05:50:45;90435.94;;;5.61;74.95
76074;BME280;64776;42.636;24.358;2023-05-10T05:53:46;90429.22;;;5.69;74.69
76074;BME280;64776;42.636;24.358;2023-05-10T05:56:47;90429.66;;;5.89;75.70
76074;BME280;64776;42.636;24.358;2023-05-10T05:59:48;90444.38;;;5.90;73.56
76074;BME280;64776;42.636;24.358;2023-05-10T06:02:48;90444.66;;;5.92;72.76
76074;BME280;64776;42.636;24.358;2023-05-10T06:05:50;90438.22;;;5.93;73.22
76074;BME280;64776;42.636;24.358;2023-05-10T06:08:51;90442.91;;;5.89;73.04
76074;BME280;64776;42.636;24.358;2023-05-10T06:19:48;90453.19;;;5.65;73.59
76074;BME280;64776;42.636;24.358;2023-05-10T06:22:50;90455.22;;;5.61;73.36
76074;BME280;64776;42.636;24.358;2023-05-10T06:25:51;90453.94;;;5.66;72.48
76074;BME280;64776;42.636;24.358;2023-05-10T06:28:52;90452.34;;;5.77;71.56
76074;BME280;64776;42.636;24.358;2023-05-10T06:31:53;90450.41;;;5.91;72.89
76074;BME280;64776;42.636;24.358;2023-05-10T06:34:55;90448.13;;;6.02;71.92
76074;BME280;64776;42.636;24.358;2023-05-10T06:37:57;90456.53;;;6.18;72.32
76074;BME280;64776;42.636;24.358;2023-05-10T06:41:00;90450.72;;;6.32;71.23
76074;BME280;64776;42.636;24.358;2023-05-10T06:44:00;90450.47;;;6.48;69.31
76074;BME280;64776;42.636;24.358;2023-05-10T06:47:01;90453.72;;;6.62;69.05
76074;BME280;64776;42.636;24.358;2023-05-10T06:50:02;90452.28;;;6.79;70.23
76074;BME280;64776;42.636;24.358;2023-05-10T06:53:04;90458.22;;;6.92;69.68
76074;BME280;64776;42.636;24.358;2023-05-10T06:56:05;90452.63;;;7.17;71.26
76074;BME280;64776;42.636;24.358;2023-05-10T06:59:06;90448.78;;;7.36;68.25
76074;BME280;64776;42.636;24.358;2023-05-10T07:02:07;90447.19;;;7.48;66.46
76074;BME280;64776;42.636;24.358;2023-05-10T07:05:08;90448.78;;;7.36;66.27
76074;BME280;64776;42.636;24.358;2023-05-10T07:08:10;90445.41;;;7.35;67.03
76074;BME280;64776;42.636;24.358;2023-05-10T07:11:13;90448.19;;;7.50;66.84
76074;BME280;64776;42.636;24.358;2023-05-10T07:14:14;90453.94;;;7.58;67.21
76074;BME280;64776;42.636;24.358;2023-05-10T07:17:14;90449.97;;;7.44;66.40
76074;BME280;64776;42.636;24.358;2023-05-10T07:20:15;90452.63;;;7.53;66.52
76074;BME280;64776;42.636;24.358;2023-05-10T07:23:18;90458.09;;;7.50;67.09
76074;BME280;64776;42.636;24.358;2023-05-10T07:26:18;90459.41;;;7.45;67.21
76074;BME280;64776;42.636;24.358;2023-05-10T07:29:19;90460.56;;;7.44;65.79
76074;BME280;64776;42.636;24.358;2023-05-10T07:32:20;90454.97;;;7.42;66.74
76074;BME280;64776;42.636;24.358;2023-05-10T07:35:21;90466.63;;;7.45;66.40
76074;BME280;64776;42.636;24.358;2023-05-10T07:38:23;90452.03;;;7.49;66.68
76074;BME280;64776;42.636;24.358;2023-05-10T07:41:24;90453.03;;;7.61;67.34
76074;BME280;64776;42.636;24.358;2023-05-10T07:44:24;90459.97;;;7.67;66.45
76074;BME280;64776;42.636;24.358;2023-05-10T07:47:25;90465.13;;;7.80;67.00
76074;BME280;64776;42.636;24.358;2023-05-10T07:50:26;90450.84;;;7.68;66.43
76074;BME280;64776;42.636;24.358;2023-05-10T07:53:28;90449.91;;;7.80;65.40
76074;BME280;64776;42.636;24.358;2023-05-10T07:56:30;90460.50;;;7.89;64.84
76074;BME280;64776;42.636;24.358;2023-05-10T07:59:31;90468.81;;;7.82;66.03
76074;BME280;64776;42.636;24.358;2023-05-10T08:02:32;90462.00;;;7.81;64.61
76074;BME280;64776;42.636;24.358;2023-05-10T08:05:33;90464.81;;;7.87;66.70
76074;BME280;64776;42.636;24.358;2023-05-10T08:08:35;90471.44;;;7.91;65.97
76074;BME280;64776;42.636;24.358;2023-05-10T08:11:36;90464.03;;;8.04;66.38
76074;BME280;64776;42.636;24.358;2023-05-10T08:14:37;90474.06;;;8.09;67.26
76074;BME280;64776;42.636;24.358;2023-05-10T08:17:38;90471.28;;;7.95;66.60
76074;BME280;64776;42.636;24.358;2023-05-10T08:20:38;90477.19;;;7.99;66.69
76074;BME280;64776;42.636;24.358;2023-05-10T08:23:41;90484.22;;;8.20;67.28
76074;BME280;64776;42.636;24.358;2023-05-10T08:26:41;90478.00;;;8.32;66.09
76074;BME280;64776;42.636;24.358;2023-05-10T08:29:42;90482.28;;;8.39;65.70
76074;BME280;64776;42.636;24.358;2023-05-10T08:32:43;90481.91;;;8.55;67.36
76074;BME280;64776;42.636;24.358;2023-05-10T08:35:44;90478.88;;;8.71;66.38
76074;BME280;64776;42.636;24.358;2023-05-10T08:38:46;90485.91;;;8.83;66.65
76074;BME280;64776;42.636;24.358;2023-05-10T08:41:48;90476.84;;;8.89;64.35
76074;BME280;64776;42.636;24.358;2023-05-10T08:44:51;90481.69;;;9.00;65.33
76074;BME280;64776;42.636;24.358;2023-05-10T08:47:53;90480.88;;;8.85;67.30
76074;BME280;64776;42.636;24.358;2023-05-10T08:50:57;90480.75;;;9.03;68.67
76074;BME280;64776;42.636;24.358;2023-05-10T08:54:00;90477.19;;;9.06;66.10
76074;BME280;64776;42.636;24.358;2023-05-10T08:57:01;90492.88;;;9.04;65.41
76074;BME280;64776;42.636;24.358;2023-05-10T09:00:03;90484.06;;;8.98;66.38
76074;BME280;64776;42.636;24.358;2023-05-10T09:03:05;90480.38;;;8.95;67.32
76074;BME280;64776;42.636;24.358;2023-05-10T09:06:06;90478.56;;;9.01;65.31
76074;BME280;64776;42.636;24.358;2023-05-10T09:09:08;90474.38;;;9.10;67.77
76074;BME280;64776;42.636;24.358;2023-05-10T09:12:11;90480.81;;;9.18;67.88
76074;BME280;64776;42.636;24.358;2023-05-10T09:15:15;90484.56;;;8.87;67.75
76074;BME280;64776;42.636;24.358;2023-05-10T09:18:17;90481.44;;;8.89;68.27
76074;BME280;64776;42.636;24.358;2023-05-10T09:21:19;90469.47;;;8.84;67.10
76074;BME280;64776;42.636;24.358;2023-05-10T09:24:25;90468.97;;;8.95;67.98
76074;BME280;64776;42.636;24.358;2023-05-10T09:27:26;90464.34;;;9.05;67.02
76074;BME280;64776;42.636;24.358;2023-05-10T09:30:29;90471.38;;;9.17;67.35
76074;BME280;64776;42.636;24.358;2023-05-10T09:33:43;90472.97;;;9.38;67.64
76074;BME280;64776;42.636;24.358;2023-05-10T09:36:52;90471.78;;;9.39;66.04
76074;BME280;64776;42.636;24.358;2023-05-10T09:39:54;90466.66;;;9.35;66.74
76074;BME280;64776;42.636;24.358;2023-05-10T09:42:56;90462.16;;;9.41;66.14
76074;BME280;64776;42.636;24.358;2023-05-10T09:45:57;90466.28;;;9.42;66.51
76074;BME280;64776;42.636;24.358;2023-05-10T09:48:58;90457.78;;;9.53;63.70
76074;BME280;64776;42.636;24.358;2023-05-10T09:52:03;90458.63;;;9.73;64.51
76074;BME280;64776;42.636;24.358;2023-05-10T09:55:06;90461.50;;;9.84;64.26
76074;BME280;64776;42.636;24.358;2023-05-10T09:58:07;90458.19;;;9.90;62.62
76074;BME280;64776;42.636;24.358;2023-05-10T10:01:11;90451.56;;;10.00;64.28
76074;BME280;64776;42.636;24.358;2023-05-10T10:04:12;90451.84;;;10.02;62.90
76074;BME280;64776;42.636;24.358;2023-05-10T10:07:13;90456.72;;;9.89;62.23
76074;BME280;64776;42.636;24.358;2023-05-10T10:10:15;90449.63;;;9.85;63.36
76074;BME280;64776;42.636;24.358;2023-05-10T10:13:16;90453.97;;;9.68;63.15
76074;BME280;64776;42.636;24.358;2023-05-10T10:16:17;90445.25;;;9.82;63.27
76074;BME280;64776;42.636;24.358;2023-05-10T10:19:18;90451.47;;;9.94;63.26
76074;BME280;64776;42.636;24.358;2023-05-10T10:22:22;90454.31;;;9.76;66.15
76074;BME280;64776;42.636;24.358;2023-05-10T10:25:24;90460.56;;;9.88;67.34
76074;BME280;64776;42.636;24.358;2023-05-10T10:28:34;90452.13;;;9.89;63.29
76074;BME280;64776;42.636;24.358;2023-05-10T10:31:41;90443.50;;;10.09;60.30
76074;BME280;64776;42.636;24.358;2023-05-10T10:34:45;90445.34;;;10.03;58.06
76074;BME280;64776;42.636;24.358;2023-05-10T10:37:50;90447.34;;;9.93;62.44
76074;BME280;64776;42.636;24.358;2023-05-10T10:41:02;90445.13;;;9.92;66.21
76074;BME280;64776;42.636;24.358;2023-05-10T10:47:43;90463.63;;;9.42;64.08
76074;BME280;64776;42.636;24.358;2023-05-10T10:50:45;90449.03;;;9.52;59.85
76074;BME280;64776;42.636;24.358;2023-05-10T10:53:48;90453.09;;;9.48;61.50
76074;BME280;64776;42.636;24.358;2023-05-10T10:57:10;90454.81;;;9.36;63.16
76074;BME280;64776;42.636;24.358;2023-05-10T11:00:22;90453.19;;;9.53;65.59
76074;BME280;64776;42.636;24.358;2023-05-10T11:03:23;90456.13;;;9.55;66.48
76074;BME280;64776;42.636;24.358;2023-05-10T11:06:29;90442.28;;;9.66;67.33
76074;BME280;64776;42.636;24.358;2023-05-10T11:09:39;90445.03;;;9.71;64.53
76074;BME280;64776;42.636;24.358;2023-05-10T11:12:52;90444.38;;;9.62;63.66
76074;BME280;64776;42.636;24.358;2023-05-10T11:15:53;90437.97;;;9.83;62.52
76074;BME280;64776;42.636;24.358;2023-05-10T11:18:58;90438.69;;;9.83;62.94
76074;BME280;64776;42.636;24.358;2023-05-10T11:22:14;90438.88;;;9.80;62.98
76074;BME280;64776;42.636;24.358;2023-05-10T11:25:15;90441.75;;;9.76;63.31
76074;BME280;64776;42.636;24.358;2023-05-10T11:28:18;90441.25;;;9.63;62.93
76074;BME280;64776;42.636;24.358;2023-05-10T11:31:19;90443.56;;;9.70;63.68
76074;BME280;64776;42.636;24.358;2023-05-10T11:34:24;90446.34;;;9.76;63.34
76074;BME280;64776;42.636;24.358;2023-05-10T11:37:28;90452.31;;;9.33;64.68
76074;BME280;64776;42.636;24.358;2023-05-10T11:40:29;90452.50;;;9.06;67.92
76074;BME280;64776;42.636;24.358;2023-05-10T11:43:31;90450.19;;;8.98;67.35
76074;BME280;64776;42.636;24.358;2023-05-10T11:46:32;90445.50;;;8.93;67.91
76074;BME280;64776;42.636;24.358;2023-05-10T11:49:33;90452.28;;;8.71;68.67
76074;BME280;64776;42.636;24.358;2023-05-10T11:52:35;90449.28;;;8.45;69.65
76074;BME280;64776;42.636;24.358;2023-05-10T11:55:36;90455.75;;;8.53;71.71
76074;BME280;64776;42.636;24.358;2023-05-10T11:58:39;90448.38;;;8.81;69.52
76074;BME280;64776;42.636;24.358;2023-05-10T12:01:40;90448.03;;;8.88;68.33
76074;BME280;64776;42.636;24.358;2023-05-10T12:04:41;90455.59;;;8.57;70.38
76074;BME280;64776;42.636;24.358;2023-05-10T12:15:22;90451.25;;;8.68;68.90
76074;BME280;64776;42.636;24.358;2023-05-10T12:18:24;90446.56;;;8.87;69.65
76074;BME280;64776;42.636;24.358;2023-05-10T12:21:45;90447.97;;;8.97;69.72
76074;BME280;64776;42.636;24.358;2023-05-10T12:24:46;90443.53;;;9.18;68.51
76074;BME280;64776;42.636;24.358;2023-05-10T12:27:49;90442.19;;;9.22;68.34
76074;BME280;64776;42.636;24.358;2023-05-10T12:30:53;90442.41;;;9.33;68.40
76074;BME280;64776;42.636;24.358;2023-05-10T12:33:54;90430.00;;;9.30;68.25
76074;BME280;64776;42.636;24.358;2023-05-10T12:36:55;90426.56;;;9.53;66.89
76074;BME280;64776;42.636;24.358;2023-05-10T12:40:07;90425.81;;;9.53;66.23
76074;BME280;64776;42.636;24.358;2023-05-10T12:43:08;90417.00;;;9.61;65.61
76074;BME280;64776;42.636;24.358;2023-05-10T12:46:13;90409.84;;;9.82;65.12
76074;BME280;64776;42.636;24.358;2023-05-10T12:49:14;90415.72;;;9.86;63.15
76074;BME280;64776;42.636;24.358;2023-05-10T12:52:15;90404.25;;;9.95;64.02
76074;BME280;64776;42.636;24.358;2023-05-10T12:55:18;90406.38;;;9.91;63.81
76074;BME280;64776;42.636;24.358;2023-05-10T12:58:18;90407.75;;;10.01;63.65
76074;BME280;64776;42.636;24.358;2023-05-10T13:01:21;90388.63;;;10.17;63.72
76074;BME280;64776;42.636;24.358;2023-05-10T13:04:21;90391.34;;;10.08;62.71
76074;BME280;64776;42.636;24.358;2023-05-10T13:07:22;90392.19;;;10.28;62.66
76074;BME280;64776;42.636;24.358;2023-05-10T13:10:23;90380.66;;;10.37;62.45
76074;BME280;64776;42.636;24.358;2023-05-10T13:13:24;90383.53;;;10.33;62.62
76074;BME280;64776;42.636;24.358;2023-05-10T13:16:26;90382.53;;;10.02;65.82
76074;BME280;64776;42.636;24.358;2023-05-10T13:19:27;90388.53;;;9.97;64.72
76074;BME280;64776;42.636;24.358;2023-05-10T13:22:27;90386.50;;;9.92;63.07
76074;BME280;64776;42.636;24.358;2023-05-10T13:25:28;90381.72;;;9.81;63.96
76074;BME280;64776;42.636;24.358;2023-05-10T13:28:29;90383.00;;;9.71;65.12
76074;BME280;64776;42.636;24.358;2023-05-10T13:31:31;90382.38;;;9.61;66.72
76074;BME280;64776;42.636;24.358;2023-05-10T13:34:32;90370.91;;;9.55;64.65
76074;BME280;64776;42.636;24.358;2023-05-10T13:37:33;90376.03;;;9.59;65.08
76074;BME280;64776;42.636;24.358;2023-05-10T13:40:34;90382.19;;;9.50;66.23
76074;BME280;64776;42.636;24.358;2023-05-10T13:43:35;90378.50;;;9.62;67.33
76074;BME280;64776;42.636;24.358;2023-05-10T13:46:37;90374.03;;;9.54;65.41
76074;BME280;64776;42.636;24.358;2023-05-10T13:49:38;90370.16;;;9.55;64.75
76074;BME280;64776;42.636;24.358;2023-05-10T13:52:38;90372.91;;;9.46;67.00
76074;BME280;64776;42.636;24.358;2023-05-10T13:55:39;90371.44;;;9.59;67.04
76074;BME280;64776;42.636;24.358;2023-05-10T13:58:40;90374.19;;;9.65;67.95
76074;BME280;64776;42.636;24.358;2023-05-10T14:01:43;90374.75;;;9.54;64.78
76074;BME280;64776;42.636;24.358;2023-05-10T14:04:43;90371.63;;;9.41;66.29
76074;BME280;64776;42.636;24.358;2023-05-10T14:07:44;90371.69;;;9.32;66.76
76074;BME280;64776;42.636;24.358;2023-05-10T14:10:45;90367.03;;;9.27;66.15
76074;BME280;64776;42.636;24.358;2023-05-10T14:13:46;90371.47;;;9.21;66.71
76074;BME280;64776;42.636;24.358;2023-05-10T14:16:48;90363.50;;;9.21;68.04
76074;BME280;64776;42.636;24.358;2023-05-10T14:19:49;90363.69;;;9.18;67.23
76074;BME280;64776;42.636;24.358;2023-05-10T14:22:49;90372.00;;;8.96;68.51
76074;BME280;64776;42.636;24.358;2023-05-10T14:25:50;90364.22;;;9.07;69.24
76074;BME280;64776;42.636;24.358;2023-05-10T14:28:51;90367.84;;;8.95;68.69
76074;BME280;64776;42.636;24.358;2023-05-10T14:31:53;90367.47;;;8.87;68.60
76074;BME280;64776;42.636;24.358;2023-05-10T14:34:54;90363.28;;;8.95;68.15
76074;BME280;64776;42.636;24.358;2023-05-10T14:37:55;90373.38;;;8.91;68.30
76074;BME280;64776;42.636;24.358;2023-05-10T14:40:55;90372.09;;;9.01;69.30
76074;BME280;64776;42.636;24.358;2023-05-10T14:43:56;90379.63;;;9.03;69.07
76074;BME280;64776;42.636;24.358;2023-05-10T14:46:58;90380.09;;;8.78;70.54
76074;BME280;64776;42.636;24.358;2023-05-10T14:49:59;90381.63;;;8.70;70.02
76074;BME280;64776;42.636;24.358;2023-05-10T14:53:00;90380.16;;;8.69;70.89
76074;BME280;64776;42.636;24.358;2023-05-10T14:56:01;90377.22;;;8.67;71.06
76074;BME280;64776;42.636;24.358;2023-05-10T14:59:01;90377.50;;;8.69;71.25
76074;BME280;64776;42.636;24.358;2023-05-10T15:02:04;90381.34;;;8.68;71.48
76074;BME280;64776;42.636;24.358;2023-05-10T15:05:05;90386.56;;;8.62;71.71
76074;BME280;64776;42.636;24.358;2023-05-10T15:08:06;90386.47;;;8.57;71.40
76074;BME280;64776;42.636;24.358;2023-05-10T15:11:06;90392.66;;;8.54;71.87
76074;BME280;64776;42.636;24.358;2023-05-10T15:14:07;90392.00;;;8.44;72.97
76074;BME280;64776;42.636;24.358;2023-05-10T15:17:10;90390.91;;;8.51;72.81
76074;BME280;64776;42.636;24.358;2023-05-10T15:20:36;90386.47;;;8.57;73.15
76074;BME280;64776;42.636;24.358;2023-05-10T15:23:36;90389.41;;;8.59;73.74
76074;BME280;64776;42.636;24.358;2023-05-10T15:26:37;90388.66;;;8.58;72.99
76074;BME280;64776;42.636;24.358;2023-05-10T15:29:38;90386.78;;;8.50;73.06
76074;BME280;64776;42.636;24.358;2023-05-10T15:32:40;90385.75;;;8.47;73.23
76074;BME280;64776;42.636;24.358;2023-05-10T15:35:41;90388.75;;;8.40;73.60
76074;BME280;64776;42.636;24.358;2023-05-10T15:38:42;90394.13;;;8.31;73.80
76074;BME280;64776;42.636;24.358;2023-05-10T15:41:42;90388.50;;;8.29;74.37
76074;BME280;64776;42.636;24.358;2023-05-10T15:44:43;90374.47;;;8.29;73.71
76074;BME280;64776;42.636;24.358;2023-05-10T15:47:45;90378.06;;;8.16;73.77
76074;BME280;64776;42.636;24.358;2023-05-10T15:50:46;90365.91;;;8.24;73.99
76074;BME280;64776;42.636;24.358;2023-05-10T15:53:47;90365.03;;;8.28;73.40
76074;BME280;64776;42.636;24.358;2023-05-10T15:56:47;90374.75;;;8.31;73.65
76074;BME280;64776;42.636;24.358;2023-05-10T15:59:48;90371.09;;;8.19;73.75
76074;BME280;64776;42.636;24.358;2023-05-10T16:02:52;90372.41;;;8.23;73.07
76074;BME280;64776;42.636;24.358;2023-05-10T16:05:53;90374.47;;;8.29;73.08
76074;BME280;64776;42.636;24.358;2023-05-10T16:08:54;90366.19;;;8.36;72.88
76074;BME280;64776;42.636;24.358;2023-05-10T16:11:55;90373.56;;;8.41;72.37
76074;BME280;64776;42.636;24.358;2023-05-10T16:14:55;90373.56;;;8.41;72.94
76074;BME280;64776;42.636;24.358;2023-05-10T16:17:58;90374.47;;;8.29;73.22
76074;BME280;64776;42.636;24.358;2023-05-10T16:20:59;90372.13;;;8.21;73.92
76074;BME280;64776;42.636;24.358;2023-05-10T16:24:00;90374.19;;;8.27;73.71